createdAt,value
2018-09-06T00:01:21.901Z,15.40
2018-09-06T00:03:49.936Z,15.40
2018-09-06T00:06:17.687Z,15.40
2018-09-06T00:08:45.428Z,15.30
2018-09-06T00:11:13.405Z,15.20
2018-09-06T00:13:41.272Z,15.20
2018-09-06T00:16:09.085Z,15.10
2018-09-06T00:18:36.992Z,15.10
2018-09-06T00:21:04.838Z,15.00
2018-09-06T00:23:32.635Z,15.00
2018-09-06T00:26:00.423Z,15.10
2018-09-06T00:28:28.372Z,15.00
2018-09-06T00:30:56.332Z,15.00
2018-09-06T00:33:24.259Z,15.00
2018-09-06T00:35:52.071Z,15.00
2018-09-06T00:38:19.793Z,15.00
2018-09-06T00:40:47.704Z,15.00
2018-09-06T00:43:15.474Z,15.00
2018-09-06T00:45:43.234Z,15.00
2018-09-06T00:48:11.030Z,14.90
2018-09-06T00:50:40.204Z,14.90
2018-09-06T00:53:08.274Z,14.90
2018-09-06T00:55:36.368Z,14.80
2018-09-06T00:58:04.410Z,14.90
2018-09-06T01:00:32.491Z,14.90
2018-09-06T01:03:00.360Z,14.90
2018-09-06T01:05:28.640Z,14.90
2018-09-06T01:07:56.431Z,14.90
2018-09-06T01:10:24.294Z,14.80
2018-09-06T01:12:52.031Z,14.80
2018-09-06T01:15:19.778Z,14.70
2018-09-06T01:17:47.546Z,14.70
2018-09-06T01:20:15.405Z,14.70
2018-09-06T01:22:43.312Z,14.80
2018-09-06T01:25:11.127Z,14.80
2018-09-06T01:27:39.814Z,14.80
2018-09-06T01:30:07.621Z,14.80
2018-09-06T01:32:35.433Z,14.70
2018-09-06T01:35:03.266Z,14.60
2018-09-06T01:37:31.042Z,14.70
2018-09-06T01:39:58.938Z,14.80
2018-09-06T01:42:26.735Z,14.80
2018-09-06T01:44:54.774Z,14.90
2018-09-06T01:47:22.676Z,15.00
2018-09-06T01:49:50.443Z,15.00
2018-09-06T01:52:18.265Z,14.90
2018-09-06T01:54:46.271Z,15.00
2018-09-06T01:57:14.032Z,15.00
2018-09-06T01:59:41.830Z,15.10
2018-09-06T02:02:09.859Z,15.10
2018-09-06T02:04:38.066Z,15.00
2018-09-06T02:07:06.522Z,15.00
2018-09-06T02:09:34.435Z,15.00
2018-09-06T02:12:02.270Z,15.00
2018-09-06T02:14:30.064Z,15.10
2018-09-06T02:16:58.036Z,15.10
2018-09-06T02:19:25.850Z,15.10
2018-09-06T02:21:53.630Z,15.10
2018-09-06T02:24:21.487Z,15.20
2018-09-06T02:26:49.470Z,15.20
2018-09-06T02:29:17.300Z,15.20
2018-09-06T02:31:45.074Z,15.10
2018-09-06T02:34:12.904Z,15.20
2018-09-06T02:36:40.655Z,15.10
2018-09-06T02:39:09.510Z,15.10
2018-09-06T02:41:37.419Z,15.00
2018-09-06T02:44:05.517Z,15.00
2018-09-06T02:46:33.539Z,14.90
2018-09-06T02:49:01.365Z,15.00
2018-09-06T02:51:29.146Z,14.90
2018-09-06T02:53:57.055Z,14.80
2018-09-06T02:56:24.775Z,14.90
2018-09-06T02:58:52.579Z,14.90
2018-09-06T03:01:20.495Z,14.90
2018-09-06T03:03:48.202Z,14.80
2018-09-06T03:06:16.239Z,14.80
2018-09-06T03:08:44.003Z,14.80
2018-09-06T03:11:27.189Z,14.80
2018-09-06T03:13:54.927Z,14.70
2018-09-06T03:16:23.018Z,14.70
2018-09-06T03:18:50.759Z,14.70
2018-09-06T03:21:18.655Z,14.80
2018-09-06T03:23:46.402Z,14.80
2018-09-06T03:26:16.147Z,14.80
2018-09-06T03:28:44.154Z,14.70
2018-09-06T03:31:12.340Z,14.80
2018-09-06T03:33:40.250Z,14.70
2018-09-06T03:36:08.039Z,14.60
2018-09-06T03:38:35.955Z,14.60
2018-09-06T03:41:03.785Z,14.60
2018-09-06T03:43:31.618Z,14.60
2018-09-06T03:45:59.442Z,14.60
2018-09-06T03:48:27.419Z,14.70
2018-09-06T03:50:55.340Z,14.80
2018-09-06T03:53:23.178Z,14.80
2018-09-06T03:55:51.035Z,14.80
2018-09-06T03:58:19.965Z,14.70
2018-09-06T04:00:47.935Z,14.60
2018-09-06T04:03:15.843Z,14.60
2018-09-06T04:05:43.627Z,14.50
2018-09-06T04:08:11.821Z,14.50
2018-09-06T04:10:39.611Z,14.50
2018-09-06T04:13:07.423Z,14.50
2018-09-06T04:15:35.158Z,14.60
2018-09-06T04:18:03.088Z,14.60
2018-09-06T04:20:30.964Z,14.60
2018-09-06T04:22:58.707Z,14.80
2018-09-06T04:25:26.564Z,14.80
2018-09-06T04:27:54.420Z,14.90
2018-09-06T04:30:22.204Z,15.00
2018-09-06T04:32:50.011Z,15.00
2018-09-06T04:35:18.141Z,15.10
2018-09-06T04:37:45.986Z,15.00
2018-09-06T04:40:13.773Z,14.90
2018-09-06T04:42:41.757Z,14.90
2018-09-06T04:45:09.493Z,14.90
2018-09-06T04:47:37.494Z,14.90
2018-09-06T04:50:05.539Z,14.90
2018-09-06T04:52:33.342Z,14.90
2018-09-06T04:55:01.251Z,14.90
2018-09-06T04:57:29.187Z,14.90
2018-09-06T04:59:56.960Z,14.90
2018-09-06T05:02:24.885Z,15.10
2018-09-06T05:04:52.738Z,15.10
2018-09-06T05:07:20.521Z,15.30
2018-09-06T05:09:48.396Z,15.30
2018-09-06T05:12:16.267Z,15.40
2018-09-06T05:14:44.146Z,15.40
2018-09-06T05:17:11.881Z,15.40
2018-09-06T05:19:39.910Z,15.50
2018-09-06T05:22:07.806Z,15.50
2018-09-06T05:24:35.705Z,15.60
2018-09-06T05:27:03.737Z,15.50
2018-09-06T05:29:31.766Z,15.50
2018-09-06T05:31:59.483Z,15.50
2018-09-06T05:34:27.496Z,15.60
2018-09-06T05:36:55.239Z,15.60
2018-09-06T05:39:22.983Z,15.60
2018-09-06T05:41:50.965Z,15.60
2018-09-06T05:44:18.869Z,15.70
2018-09-06T05:46:46.887Z,15.80
2018-09-06T05:49:14.712Z,15.90
2018-09-06T05:51:42.471Z,16.00
2018-09-06T05:54:10.411Z,16.00
2018-09-06T05:56:38.352Z,16.00
2018-09-06T05:59:06.237Z,16.00
2018-09-06T06:01:34.020Z,16.10
2018-09-06T06:04:01.831Z,16.00
2018-09-06T06:06:29.699Z,15.90
2018-09-06T06:08:57.561Z,16.00
2018-09-06T06:11:25.482Z,16.10
2018-09-06T06:13:53.487Z,16.00
2018-09-06T06:16:21.358Z,16.10
2018-09-06T06:18:49.147Z,16.10
2018-09-06T06:21:17.068Z,16.10
2018-09-06T06:23:44.872Z,16.10
2018-09-06T06:26:12.672Z,16.30
2018-09-06T06:28:40.489Z,16.40
2018-09-06T06:31:08.463Z,16.60
2018-09-06T06:33:36.338Z,16.60
2018-09-06T06:36:04.088Z,16.70
2018-09-06T06:38:31.890Z,16.80
2018-09-06T06:40:59.654Z,16.70
2018-09-06T06:43:27.474Z,16.90
2018-09-06T06:45:55.186Z,17.00
2018-09-06T06:48:24.084Z,17.10
2018-09-06T06:50:51.998Z,17.30
2018-09-06T06:53:20.010Z,17.40
2018-09-06T06:55:48.002Z,17.60
2018-09-06T06:58:15.867Z,17.70
2018-09-06T07:00:44.004Z,17.80
2018-09-06T07:03:13.399Z,17.80
2018-09-06T07:05:41.909Z,17.70
2018-09-06T07:08:10.351Z,17.80
2018-09-06T07:10:38.609Z,17.80
2018-09-06T07:13:06.983Z,18.10
2018-09-06T07:15:35.014Z,18.20
2018-09-06T07:18:02.872Z,18.40
2018-09-06T07:20:30.840Z,18.50
2018-09-06T07:22:58.684Z,18.70
2018-09-06T07:25:26.642Z,18.80
2018-09-06T07:27:54.506Z,18.90
2018-09-06T07:30:22.338Z,19.00
2018-09-06T07:32:50.135Z,19.20
2018-09-06T07:35:18.218Z,19.50
2018-09-06T07:37:45.975Z,19.50
2018-09-06T07:40:13.967Z,19.50
2018-09-06T07:42:41.910Z,19.70
2018-09-06T07:45:09.687Z,19.70
2018-09-06T07:47:37.536Z,19.70
2018-09-06T07:50:05.672Z,19.70
2018-09-06T07:52:33.370Z,19.70
2018-09-06T07:55:01.151Z,19.80
2018-09-06T07:57:29.357Z,19.90
2018-09-06T07:59:57.296Z,20.10
2018-09-06T08:02:25.472Z,20.20
2018-09-06T08:04:53.291Z,20.30
2018-09-06T08:07:21.300Z,20.40
2018-09-06T08:09:49.204Z,20.60
2018-09-06T08:12:17.047Z,20.60
2018-09-06T08:14:44.906Z,20.80
2018-09-06T08:17:12.938Z,20.80
2018-09-06T08:19:40.755Z,20.80
2018-09-06T08:22:08.685Z,20.90
2018-09-06T08:24:36.698Z,21.00
2018-09-06T08:27:04.451Z,20.80
2018-09-06T08:29:32.317Z,20.90
2018-09-06T08:32:00.174Z,20.90
2018-09-06T08:34:27.958Z,20.90
2018-09-06T08:36:55.819Z,21.10
2018-09-06T08:39:23.745Z,21.20
2018-09-06T08:41:51.548Z,21.20
2018-09-06T08:44:19.354Z,21.40
2018-09-06T08:46:47.289Z,21.40
2018-09-06T08:49:15.242Z,21.50
2018-09-06T08:51:42.995Z,21.60
2018-09-06T08:54:10.770Z,21.70
2018-09-06T08:56:38.620Z,21.70
2018-09-06T08:59:06.545Z,21.70
2018-09-06T09:01:39.209Z,21.90
2018-09-06T09:04:07.382Z,21.90
2018-09-06T09:06:35.462Z,22.00
2018-09-06T09:09:04.605Z,22.20
2018-09-06T09:11:32.570Z,22.30
2018-09-06T09:14:00.470Z,22.30
2018-09-06T09:16:28.602Z,22.30
2018-09-06T09:18:56.398Z,22.20
2018-09-06T09:21:24.517Z,22.20
2018-09-06T09:23:52.411Z,22.20
2018-09-06T09:26:20.197Z,21.90
2018-09-06T09:28:48.135Z,22.10
2018-09-06T09:31:15.962Z,22.10
2018-09-06T09:33:44.516Z,22.00
2018-09-06T09:36:12.290Z,22.10
2018-09-06T09:38:40.157Z,22.40
2018-09-06T09:41:07.916Z,22.60
2018-09-06T09:43:36.007Z,22.80
2018-09-06T09:48:30.867Z,23.00
2018-09-06T09:50:58.866Z,23.20
2018-09-06T09:53:26.750Z,23.10
2018-09-06T09:55:54.545Z,22.80
2018-09-06T09:58:22.537Z,22.60
2018-09-06T10:00:50.366Z,22.30
2018-09-06T10:03:23.701Z,22.40
2018-09-06T10:06:00.795Z,22.50
2018-09-06T10:08:33.971Z,22.60
2018-09-06T10:11:02.062Z,22.80
2018-09-06T10:13:29.888Z,22.90
2018-09-06T10:15:57.698Z,23.00
2018-09-06T10:18:25.620Z,23.00
2018-09-06T10:20:53.508Z,22.90
2018-09-06T10:23:21.300Z,22.70
2018-09-06T10:25:49.296Z,22.60
2018-09-06T10:28:17.353Z,22.50
2018-09-06T10:30:45.210Z,22.20
2018-09-06T10:33:13.179Z,22.30
2018-09-06T10:35:40.951Z,22.40
2018-09-06T10:38:08.904Z,22.50
2018-09-06T10:40:36.714Z,22.50
2018-09-06T10:43:04.538Z,22.30
2018-09-06T10:45:32.702Z,22.20
2018-09-06T10:48:00.619Z,22.10
2018-09-06T10:50:28.696Z,22.00
2018-09-06T10:52:56.467Z,22.00
2018-09-06T10:55:24.263Z,22.00
2018-09-06T10:57:52.022Z,22.00
2018-09-06T11:00:20.108Z,21.90
2018-09-06T11:02:48.224Z,21.80
2018-09-06T11:05:16.072Z,21.60
2018-09-06T11:07:43.924Z,21.30
2018-09-06T11:10:11.854Z,21.10
2018-09-06T11:12:39.800Z,20.80
2018-09-06T11:15:07.699Z,20.50
2018-09-06T11:17:35.501Z,20.40
2018-09-06T11:20:03.580Z,20.40
2018-09-06T11:22:31.741Z,20.40
2018-09-06T11:24:59.452Z,20.50
2018-09-06T11:27:27.402Z,20.50
2018-09-06T11:29:55.216Z,20.50
2018-09-06T11:32:23.219Z,20.60
2018-09-06T11:34:51.066Z,20.50
2018-09-06T11:37:18.953Z,20.30
2018-09-06T11:39:47.143Z,20.20
2018-09-06T11:42:15.015Z,19.90
2018-09-06T11:44:42.822Z,19.80
2018-09-06T11:47:10.828Z,19.80
2018-09-06T11:49:38.596Z,19.90
2018-09-06T11:52:06.976Z,20.00
2018-09-06T11:54:34.850Z,20.00
2018-09-06T11:57:02.778Z,20.00
2018-09-06T11:59:31.015Z,20.10
2018-09-06T12:01:59.013Z,20.00
2018-09-06T12:04:26.904Z,20.10
2018-09-06T12:06:54.856Z,20.10
2018-09-06T12:09:22.728Z,20.10
2018-09-06T12:11:50.644Z,20.00
2018-09-06T12:14:18.488Z,20.00
2018-09-06T12:16:46.445Z,20.10
2018-09-06T12:19:14.354Z,20.00
2018-09-06T12:21:42.113Z,20.00
2018-09-06T12:24:09.965Z,20.00
2018-09-06T12:26:37.716Z,20.00
2018-09-06T12:29:05.875Z,20.10
2018-09-06T12:31:33.828Z,20.20
2018-09-06T12:34:01.867Z,20.20
2018-09-06T12:36:30.098Z,20.40
2018-09-06T12:38:58.111Z,20.40
2018-09-06T12:41:26.202Z,20.50
2018-09-06T12:43:54.197Z,20.60
2018-09-06T12:46:21.966Z,20.70
2018-09-06T12:48:50.208Z,20.80
2018-09-06T12:51:18.015Z,20.80
2018-09-06T12:53:45.979Z,20.80
2018-09-06T12:56:13.907Z,21.00
2018-09-06T12:58:41.709Z,21.20
2018-09-06T13:01:11.780Z,21.30
2018-09-06T13:03:39.832Z,21.30
2018-09-06T13:06:07.749Z,21.50
2018-09-06T13:08:36.232Z,21.70
2018-09-06T13:11:04.216Z,21.60
2018-09-06T13:13:32.350Z,21.70
2018-09-06T13:16:00.216Z,21.80
2018-09-06T13:18:28.220Z,22.00
2018-09-06T13:20:56.142Z,22.10
2018-09-06T13:23:23.991Z,22.20
2018-09-06T13:25:51.945Z,22.20
2018-09-06T13:28:19.700Z,22.20
2018-09-06T13:30:47.509Z,22.20
2018-09-06T13:33:15.364Z,22.30
2018-09-06T13:35:43.594Z,22.30
2018-09-06T13:38:11.542Z,22.30
2018-09-06T13:40:46.132Z,22.30
2018-09-06T13:43:14.085Z,22.30
2018-09-06T13:45:42.007Z,22.30
2018-09-06T13:48:10.161Z,22.30
2018-09-06T13:50:38.218Z,22.30
2018-09-06T13:53:05.976Z,22.30
2018-09-06T13:55:33.801Z,22.40
2018-09-06T13:58:01.825Z,22.30
2018-09-06T14:00:29.651Z,22.30
2018-09-06T14:02:57.937Z,22.30
2018-09-06T14:05:25.999Z,22.30
2018-09-06T14:07:53.932Z,22.30
2018-09-06T14:10:21.771Z,22.40
2018-09-06T14:12:49.675Z,22.30
2018-09-06T14:15:17.567Z,22.30
2018-09-06T14:17:45.371Z,22.40
2018-09-06T14:20:13.367Z,22.40
2018-09-06T14:22:41.150Z,22.30
2018-09-06T14:25:09.055Z,22.20
2018-09-06T14:27:36.945Z,22.20
2018-09-06T14:30:04.843Z,22.10
2018-09-06T14:32:32.932Z,22.00
2018-09-06T14:35:00.906Z,21.80
2018-09-06T14:37:28.798Z,21.80
2018-09-06T14:39:56.923Z,21.70
2018-09-06T14:42:24.758Z,21.70
2018-09-06T14:44:52.609Z,21.70
2018-09-06T14:47:20.513Z,21.90
2018-09-06T14:49:48.515Z,22.20
2018-09-06T14:52:16.441Z,22.30
2018-09-06T14:54:44.373Z,22.40
2018-09-06T14:57:12.351Z,22.50
2018-09-06T14:59:40.198Z,22.60
2018-09-06T15:02:08.193Z,22.80
2018-09-06T15:04:36.139Z,22.90
2018-09-06T15:07:04.098Z,22.90
2018-09-06T15:09:31.962Z,22.90
2018-09-06T15:11:59.796Z,22.80
2018-09-06T15:14:27.635Z,22.60
2018-09-06T15:16:55.444Z,22.50
2018-09-06T15:19:23.437Z,22.50
2018-09-06T15:21:51.241Z,22.30
2018-09-06T15:24:18.978Z,22.40
2018-09-06T15:26:47.032Z,22.40
2018-09-06T15:29:15.073Z,22.40
2018-09-06T15:31:43.084Z,22.40
2018-09-06T15:34:10.937Z,22.30
2018-09-06T15:36:38.832Z,22.50
2018-09-06T15:39:07.598Z,22.50
2018-09-06T15:41:35.711Z,22.50
2018-09-06T15:44:03.816Z,22.50
2018-09-06T15:46:31.774Z,22.40
2018-09-06T15:48:59.759Z,22.30
2018-09-06T15:51:27.698Z,22.10
2018-09-06T15:53:55.601Z,21.90
2018-09-06T15:56:23.451Z,21.80
2018-09-06T15:58:51.304Z,21.90
2018-09-06T16:01:19.254Z,21.90
2018-09-06T16:03:47.623Z,22.00
2018-09-06T16:06:15.407Z,21.90
2018-09-06T16:08:43.175Z,21.90
2018-09-06T16:11:11.234Z,21.80
2018-09-06T16:13:39.366Z,21.70
2018-09-06T16:16:07.207Z,21.70
2018-09-06T16:18:35.228Z,21.70
2018-09-06T16:21:03.001Z,21.70
2018-09-06T16:23:30.986Z,21.70
2018-09-06T16:25:58.961Z,21.60
2018-09-06T16:28:26.922Z,21.50
2018-09-06T16:30:55.070Z,21.30
2018-09-06T16:33:23.133Z,21.40
2018-09-06T16:35:51.045Z,21.50
2018-09-06T16:38:18.976Z,21.50
2018-09-06T16:40:47.161Z,21.40
2018-09-06T16:43:15.459Z,21.40
2018-09-06T16:45:43.775Z,21.30
2018-09-06T16:48:11.817Z,21.10
2018-09-06T16:50:39.878Z,21.00
2018-09-06T16:53:07.811Z,20.80
2018-09-06T16:55:35.904Z,20.80
2018-09-06T16:58:03.699Z,20.80
2018-09-06T17:00:31.747Z,20.80
2018-09-06T17:02:59.644Z,21.00
2018-09-06T17:05:27.516Z,20.90
2018-09-06T17:07:55.425Z,21.00
2018-09-06T17:10:23.500Z,21.00
2018-09-06T17:12:51.488Z,20.90
2018-09-06T17:15:19.368Z,21.00
2018-09-06T17:17:47.232Z,21.00
2018-09-06T17:20:15.728Z,21.00
2018-09-06T17:22:43.663Z,21.00
2018-09-06T17:25:11.597Z,20.90
2018-09-06T17:27:39.612Z,20.80
2018-09-06T17:30:07.566Z,20.70
2018-09-06T17:32:35.934Z,20.60
2018-09-06T17:35:03.987Z,20.50
2018-09-06T17:37:31.827Z,20.50
2018-09-06T17:39:59.641Z,20.50
2018-09-06T17:42:29.122Z,20.60
2018-09-06T17:44:57.433Z,20.60
2018-09-06T17:47:25.222Z,20.60
2018-09-06T17:49:53.204Z,20.50
2018-09-06T17:52:21.480Z,20.50
2018-09-06T17:54:49.358Z,20.50
2018-09-06T17:57:17.353Z,20.40
2018-09-06T17:59:45.383Z,20.40
2018-09-06T18:02:13.406Z,20.40
2018-09-06T18:04:41.336Z,20.40
2018-09-06T18:07:09.229Z,20.30
2018-09-06T18:09:37.396Z,20.20
2018-09-06T18:12:05.661Z,20.00
2018-09-06T18:14:33.715Z,20.00
2018-09-06T18:17:01.980Z,19.90
2018-09-06T18:19:29.834Z,19.80
2018-09-06T18:21:57.973Z,19.60
2018-09-06T18:24:25.864Z,19.50
2018-09-06T18:26:53.761Z,19.30
2018-09-06T18:31:49.447Z,18.70
2018-09-06T18:34:17.455Z,18.50
2018-09-06T18:36:45.325Z,18.10
2018-09-06T18:39:13.349Z,18.00
2018-09-06T18:41:41.217Z,17.90
2018-09-06T18:44:09.291Z,17.90
2018-09-06T18:46:37.337Z,17.80
2018-09-06T18:49:05.240Z,17.70
2018-09-06T18:51:33.326Z,17.60
2018-09-06T18:54:01.406Z,17.60
2018-09-06T18:56:29.406Z,17.50
2018-09-06T18:58:57.507Z,17.60
2018-09-06T19:01:25.489Z,17.60
2018-09-06T19:03:53.474Z,17.60
2018-09-06T19:06:21.642Z,17.50
2018-09-06T19:08:49.570Z,17.50
2018-09-06T19:11:17.937Z,17.50
2018-09-06T19:13:46.050Z,17.50
2018-09-06T19:16:14.139Z,17.50
2018-09-06T19:18:42.523Z,17.50
2018-09-06T19:21:10.678Z,17.50
2018-09-06T19:23:38.807Z,17.60
2018-09-06T19:26:06.742Z,17.50
2018-09-06T19:28:35.198Z,17.50
2018-09-06T19:31:03.349Z,17.60
2018-09-06T19:33:31.636Z,17.50
2018-09-06T19:35:59.914Z,17.40
2018-09-06T19:38:28.192Z,17.40
2018-09-06T19:40:56.554Z,17.40
2018-09-06T19:43:24.688Z,17.50
2018-09-06T19:45:52.999Z,17.50
2018-09-06T19:48:21.223Z,17.50
2018-09-06T19:50:49.945Z,17.40
2018-09-06T19:53:18.429Z,17.40
2018-09-06T19:55:46.896Z,17.40
2018-09-06T19:58:14.865Z,17.50
2018-09-06T20:00:42.815Z,17.60
2018-09-06T20:03:10.932Z,17.60
2018-09-06T20:05:38.925Z,17.70
2018-09-06T20:08:06.991Z,17.70
2018-09-06T20:10:34.844Z,17.70
2018-09-06T20:13:02.888Z,17.60
2018-09-06T20:15:31.159Z,17.50
2018-09-06T20:17:59.108Z,17.60
2018-09-06T20:20:27.016Z,17.60
2018-09-06T20:22:55.020Z,17.60
2018-09-06T20:25:22.853Z,17.60
2018-09-06T20:27:50.698Z,17.60
2018-09-06T20:30:18.720Z,17.60
2018-09-06T20:32:46.577Z,17.70
2018-09-06T20:35:14.410Z,17.70
2018-09-06T20:37:42.460Z,17.70
2018-09-06T20:40:10.450Z,17.80
2018-09-06T20:42:38.363Z,17.80
2018-09-06T20:45:06.307Z,17.80
2018-09-06T20:47:34.126Z,17.70
2018-09-06T20:50:02.232Z,17.80
2018-09-06T20:52:30.194Z,17.90
2018-09-06T20:54:58.161Z,17.90
2018-09-06T20:57:26.056Z,17.90
2018-09-06T20:59:54.048Z,17.90
2018-09-06T21:02:23.912Z,17.90
2018-09-06T21:04:52.975Z,17.80
2018-09-06T21:07:21.235Z,17.60
2018-09-06T21:09:49.076Z,17.50
2018-09-06T21:12:17.272Z,17.50
2018-09-06T21:14:45.554Z,17.40
2018-09-06T21:17:13.435Z,17.30
2018-09-06T21:19:41.317Z,17.20
2018-09-06T21:22:09.306Z,17.20
2018-09-06T21:24:37.219Z,17.20
2018-09-06T21:27:05.789Z,17.10
2018-09-06T21:29:33.628Z,17.10
2018-09-06T21:32:01.560Z,17.00
2018-09-06T21:34:29.440Z,17.00
2018-09-06T21:36:57.266Z,17.10
2018-09-06T21:39:25.115Z,17.10
2018-09-06T21:41:52.975Z,17.00
2018-09-06T21:44:20.819Z,17.00
2018-09-06T21:46:48.667Z,16.90
2018-09-06T21:49:16.399Z,16.80
2018-09-06T21:51:44.226Z,16.70
2018-09-06T21:54:12.068Z,16.70
2018-09-06T21:56:39.978Z,16.70
2018-09-06T21:59:07.785Z,16.60
2018-09-06T22:01:35.616Z,16.70
2018-09-06T22:04:06.510Z,16.70
2018-09-06T22:06:34.727Z,16.80
2018-09-06T22:09:03.096Z,16.80
2018-09-06T22:11:30.961Z,16.80
2018-09-06T22:13:58.732Z,16.90
2018-09-06T22:16:26.484Z,16.90
2018-09-06T22:18:54.435Z,16.90
2018-09-06T22:21:22.268Z,16.80
2018-09-06T22:23:50.184Z,16.70
2018-09-06T22:26:18.149Z,16.60
2018-09-06T22:28:45.927Z,16.60
2018-09-06T22:31:13.680Z,16.50
2018-09-06T22:33:41.451Z,16.40
2018-09-06T22:36:09.318Z,16.50
2018-09-06T22:38:37.248Z,16.50
2018-09-06T22:41:05.368Z,16.60
2018-09-06T22:43:33.186Z,16.60
2018-09-06T22:46:01.391Z,16.50
2018-09-06T22:48:29.333Z,16.60
2018-09-06T22:50:57.154Z,16.50
2018-09-06T22:53:24.958Z,16.50
2018-09-06T22:55:52.823Z,16.60
2018-09-06T22:58:20.764Z,16.70
2018-09-06T23:00:48.559Z,16.50
2018-09-06T23:03:21.773Z,16.30
2018-09-06T23:05:49.710Z,16.20
2018-09-06T23:08:17.517Z,16.20
2018-09-06T23:10:45.304Z,16.20
2018-09-06T23:13:13.151Z,16.20
2018-09-06T23:15:41.153Z,16.20
2018-09-06T23:18:09.246Z,16.20
2018-09-06T23:20:37.096Z,16.20
2018-09-06T23:23:04.859Z,16.30
2018-09-06T23:25:32.731Z,16.40
2018-09-06T23:28:00.628Z,16.40
2018-09-06T23:30:28.545Z,16.40
2018-09-06T23:32:56.349Z,16.40
2018-09-06T23:35:24.113Z,16.50
2018-09-06T23:37:51.907Z,16.50
2018-09-06T23:40:19.946Z,16.40
2018-09-06T23:42:47.935Z,16.40
2018-09-06T23:45:15.773Z,16.40
2018-09-06T23:47:43.685Z,16.50
2018-09-06T23:50:11.615Z,16.40
2018-09-06T23:52:39.435Z,16.20
2018-09-06T23:55:07.284Z,16.30
2018-09-06T23:57:35.055Z,16.40
